Time;durP1;ratioP1;P1;durP2;ratioP2;P2;SDS_P1;SDS_P2;PMS_P1;PMS_P2;Temp;Humidity;BMP_temperature;BMP_pressure;BME280_temperature;BME280_humidity;BME280_pressure;Samples;Min_cycle;Max_cycle;Signal;HPM_P1;HPM_P2
2021/01/09 00:01:27;;;;;;;9.23;8.10;;;3.40;99.90;;;;;;5062176;28;20280;-55
2021/01/09 00:03:52;;;;;;;11.93;9.17;;;3.20;99.90;;;;;;5064752;28;20193;-55
2021/01/09 00:06:18;;;;;;;11.30;9.07;;;3.40;99.90;;;;;;5070296;28;20287;-56
2021/01/09 00:08:44;;;;;;;10.67;7.93;;;3.40;99.90;;;;;;5070244;28;20251;-55
2021/01/09 00:11:09;;;;;;;9.03;8.13;;;3.20;99.90;;;;;;5063254;28;20291;-55
2021/01/09 00:13:35;;;;;;;10.10;8.80;;;3.20;99.90;;;;;;5060764;28;20271;-56
2021/01/09 00:16:00;;;;;;;10.60;8.60;;;3.30;99.90;;;;;;5065173;28;20681;-56
2021/01/09 00:18:26;;;;;;;12.57;9.30;;;3.20;99.90;;;;;;5055637;28;20315;-56
2021/01/09 00:20:51;;;;;;;13.13;9.67;;;3.00;99.90;;;;;;5070090;28;20220;-55
2021/01/09 00:23:17;;;;;;;13.30;9.27;;;3.20;99.90;;;;;;5058832;28;20193;-56
2021/01/09 00:25:43;;;;;;;13.23;9.50;;;3.10;99.90;;;;;;5066250;28;20185;-56
2021/01/09 00:28:08;;;;;;;12.63;10.10;;;3.10;99.90;;;;;;5064856;28;20566;-56
2021/01/09 00:30:34;;;;;;;12.20;9.70;;;3.20;99.90;;;;;;5068662;28;20196;-55
2021/01/09 00:32:59;;;;;;;11.20;9.07;;;3.50;99.90;;;;;;5063912;28;20281;-55
2021/01/09 00:35:25;;;;;;;9.80;8.80;;;3.30;99.90;;;;;;5059078;28;20181;-56
2021/01/09 00:37:51;;;;;;;12.07;9.50;;;3.40;99.90;;;;;;5067565;28;20213;-56
2021/01/09 00:40:16;;;;;;;11.43;9.10;;;3.30;99.90;;;;;;5059735;28;20181;-55
2021/01/09 00:42:44;;;;;;;11.10;9.33;;;3.30;99.90;;;;;;5070205;28;20192;-55
2021/01/09 00:45:10;;;;;;;11.95;10.57;;;3.10;99.90;;;;;;5059372;28;20188;-55
2021/01/09 00:47:36;;;;;;;9.95;8.45;;;3.20;99.90;;;;;;5068321;28;20847;-55
2021/01/09 00:50:03;;;;;;;11.87;9.40;;;3.30;99.90;;;;;;5052638;28;20194;-55
2021/01/09 00:52:29;;;;;;;11.10;8.73;;;3.50;99.90;;;;;;5067644;28;20930;-55
2021/01/09 00:54:54;;;;;;;9.43;8.13;;;3.20;99.90;;;;;;5060815;28;20190;-55
2021/01/09 00:57:20;;;;;;;10.70;8.10;;;3.30;99.90;;;;;;5067527;28;20213;-55
2021/01/09 00:59:48;;;;;;;10.00;8.20;;;3.50;99.90;;;;;;5065774;28;20181;-56
2021/01/09 01:02:13;;;;;;;11.75;8.60;;;3.30;99.90;;;;;;5061745;28;20189;-55
2021/01/09 01:04:39;;;;;;;10.87;8.40;;;3.40;99.90;;;;;;5064482;28;20545;-55
2021/01/09 01:07:05;;;;;;;12.27;9.10;;;3.60;99.90;;;;;;5067466;28;20189;-56
2021/01/09 01:09:30;;;;;;;11.87;8.70;;;3.30;99.90;;;;;;5069223;28;20209;-56
2021/01/09 01:11:56;;;;;;;11.50;8.80;;;3.30;99.90;;;;;;5069363;28;20180;-56
2021/01/09 01:14:22;;;;;;;12.67;9.93;;;3.50;99.90;;;;;;5061902;28;20555;-56
2021/01/09 01:16:51;;;;;;;11.60;9.40;;;3.20;99.90;;;;;;5057926;28;20185;-56
2021/01/09 01:19:16;;;;;;;12.00;9.38;;;2.90;99.90;;;;;;5064655;28;20813;-56
2021/01/09 01:21:42;;;;;;;12.30;10.10;;;3.10;99.90;;;;;;5064633;28;20307;-56
2021/01/09 01:24:08;;;;;;;12.50;10.17;;;2.90;99.90;;;;;;5058199;28;20212;-56
2021/01/09 01:26:35;;;;;;;11.00;9.60;;;3.00;99.90;;;;;;5066438;28;20555;-55
2021/01/09 01:29:00;;;;;;;10.70;9.23;;;3.20;99.90;;;;;;5068601;28;20274;-55
2021/01/09 01:31:26;;;;;;;10.03;8.90;;;3.20;99.90;;;;;;5061455;28;20189;-56
2021/01/09 01:33:52;;;;;;;11.90;9.70;;;3.20;99.90;;;;;;5063922;28;20189;-56
2021/01/09 01:36:18;;;;;;;15.50;10.77;;;3.10;99.90;;;;;;5064474;28;20439;-56
2021/01/09 01:38:44;;;;;;;10.40;9.30;;;3.30;99.90;;;;;;5061290;28;20222;-56
2021/01/09 01:41:10;;;;;;;12.07;9.63;;;3.40;99.90;;;;;;5064691;28;20621;-56
2021/01/09 01:43:36;;;;;;;11.63;9.20;;;3.40;99.90;;;;;;5049027;28;20804;-56
2021/01/09 01:46:03;;;;;;;11.90;8.98;;;3.30;99.90;;;;;;5064462;28;20177;-55
2021/01/09 01:48:30;;;;;;;11.30;9.40;;;3.40;99.90;;;;;;5068414;28;20232;-56
2021/01/09 01:50:56;;;;;;;12.50;10.10;;;3.20;99.90;;;;;;5067877;28;20220;-56
2021/01/09 01:53:22;;;;;;;12.18;9.93;;;3.20;99.90;;;;;;5068701;28;20185;-55
2021/01/09 01:55:50;;;;;;;11.60;8.55;;;3.30;99.90;;;;;;5056559;28;20196;-56
2021/01/09 01:58:15;;;;;;;11.88;9.45;;;3.00;99.90;;;;;;5068252;28;20284;-56
2021/01/09 02:00:46;;;;;;;12.13;9.63;;;3.20;99.90;;;;;;5055045;28;20674;-56
2021/01/09 02:03:15;;;;;;;12.77;9.35;;;3.40;99.90;;;;;;5057184;28;20944;-56
2021/01/09 02:05:48;;;;;;;11.05;9.30;;;3.00;99.90;;;;;;5064874;28;20190;-56
2021/01/09 02:08:16;;;;;;;12.80;10.30;;;3.50;99.90;;;;;;5053675;28;20201;-56
2021/01/09 02:10:45;;;;;;;10.85;9.65;;;3.40;99.90;;;;;;5060691;28;20246;-56
2021/01/09 02:13:18;;;;;;;12.82;9.85;;;3.30;99.90;;;;;;5057632;28;20204;-57
2021/01/09 02:15:44;;;;;;;15.27;11.95;;;3.10;99.90;;;;;;5057736;28;20235;-56
2021/01/09 02:18:12;;;;;;;11.07;9.90;;;3.40;99.90;;;;;;5064443;28;20354;-56
2021/01/09 02:20:41;;;;;;;15.13;10.93;;;3.10;99.90;;;;;;5068099;28;20277;-56
2021/01/09 02:23:06;;;;;;;13.20;10.45;;;3.40;99.90;;;;;;5054598;28;20189;-55
2021/01/09 02:25:32;;;;;;;13.90;10.70;;;3.50;99.90;;;;;;5063783;28;20262;-56
2021/01/09 02:27:58;;;;;;;14.37;11.90;;;3.50;99.90;;;;;;5057899;28;20212;-56
2021/01/09 02:30:32;;;;;;;15.70;11.17;;;3.30;99.90;;;;;;5053335;28;20209;-54
2021/01/09 02:33:02;;;;;;;13.98;11.02;;;3.20;99.90;;;;;;5065320;28;20436;-55
2021/01/09 02:35:32;;;;;;;15.80;11.55;;;3.40;99.90;;;;;;5059861;28;20680;-56
2021/01/09 02:37:58;;;;;;;14.98;11.30;;;3.20;99.90;;;;;;5065413;28;20216;-57
2021/01/09 02:40:24;;;;;;;15.05;10.48;;;3.50;99.90;;;;;;5067633;28;20706;-56
2021/01/09 02:42:49;;;;;;;14.23;11.20;;;3.20;99.90;;;;;;5060643;28;20190;-56
2021/01/09 02:45:15;;;;;;;13.10;11.03;;;3.20;99.90;;;;;;5048088;28;20194;-56
2021/01/09 02:47:41;;;;;;;15.80;11.90;;;3.20;99.90;;;;;;5065765;28;20230;-55
2021/01/09 02:50:11;;;;;;;17.58;12.35;;;3.20;99.90;;;;;;5066922;28;20503;-56
2021/01/09 02:52:40;;;;;;;17.45;11.00;;;3.60;99.90;;;;;;5067702;28;20212;-56
2021/01/09 02:55:07;;;;;;;14.95;10.85;;;3.30;99.90;;;;;;5067599;28;20193;-56
2021/01/09 02:57:34;;;;;;;15.07;10.98;;;3.10;99.90;;;;;;5061631;28;20280;-56
2021/01/09 03:00:00;;;;;;;14.85;11.30;;;3.50;99.90;;;;;;5060874;28;20195;-56
2021/01/09 03:02:25;;;;;;;16.53;11.73;;;3.50;99.90;;;;;;5063905;28;20272;-57
2021/01/09 03:04:51;;;;;;;19.70;12.70;;;3.70;99.90;;;;;;5059999;28;20280;-57
2021/01/09 03:07:17;;;;;;;15.07;12.07;;;3.60;99.90;;;;;;5059673;28;20602;-55
2021/01/09 03:09:42;;;;;;;16.10;10.93;;;3.70;99.90;;;;;;5060006;28;20710;-56
2021/01/09 03:12:08;;;;;;;14.20;11.40;;;3.50;99.90;;;;;;5064756;28;20180;-56
2021/01/09 03:14:34;;;;;;;14.70;11.98;;;3.80;99.90;;;;;;5062814;28;20197;-57
2021/01/09 03:16:59;;;;;;;12.80;11.20;;;3.80;99.90;;;;;;5067639;28;20193;-56
2021/01/09 03:19:25;;;;;;;17.90;12.07;;;3.90;99.90;;;;;;5062803;28;20202;-55
2021/01/09 03:21:51;;;;;;;17.37;12.10;;;3.90;99.90;;;;;;5058542;28;20197;-55
2021/01/09 03:24:16;;;;;;;16.50;12.87;;;3.40;99.90;;;;;;5060774;28;20712;-56
2021/01/09 03:26:42;;;;;;;15.80;13.50;;;3.60;99.90;;;;;;5062473;28;20189;-56
2021/01/09 03:29:08;;;;;;;15.53;11.93;;;3.60;99.90;;;;;;5067734;28;20201;-56
2021/01/09 03:31:34;;;;;;;17.03;12.27;;;3.80;99.90;;;;;;5055509;28;20534;-56
2021/01/09 03:33:59;;;;;;;15.30;12.10;;;3.20;99.90;;;;;;5051209;28;20186;-56
2021/01/09 03:36:25;;;;;;;15.40;12.27;;;3.90;99.90;;;;;;5068871;28;20188;-56
2021/01/09 03:38:51;;;;;;;17.00;12.63;;;3.70;99.90;;;;;;5058684;28;20232;-55
2021/01/09 03:41:16;;;;;;;18.57;12.80;;;3.50;99.90;;;;;;5061542;28;20446;-56
2021/01/09 03:43:42;;;;;;;17.13;13.20;;;3.60;99.90;;;;;;5071390;28;20243;-56
2021/01/09 03:46:08;;;;;;;17.93;13.57;;;3.30;99.90;;;;;;5057978;28;20207;-56
2021/01/09 03:48:33;;;;;;;17.50;13.10;;;3.50;99.90;;;;;;5070747;28;20224;-57
2021/01/09 03:50:59;;;;;;;15.63;12.40;;;3.60;99.90;;;;;;5071014;28;20195;-56
2021/01/09 03:53:24;;;;;;;20.33;14.07;;;3.80;99.90;;;;;;5070161;28;20719;-57
2021/01/09 03:55:50;;;;;;;16.73;12.00;;;3.70;99.90;;;;;;5056542;28;20190;-56
2021/01/09 03:58:16;;;;;;;16.30;12.67;;;3.50;99.90;;;;;;5062662;28;20274;-56
2021/01/09 04:00:41;;;;;;;19.20;13.27;;;3.70;99.90;;;;;;5060150;28;20181;-56
2021/01/09 04:03:07;;;;;;;18.30;13.30;;;3.80;99.90;;;;;;5063870;28;20678;-56
2021/01/09 04:05:32;;;;;;;16.33;12.00;;;3.60;99.90;;;;;;5067886;28;20185;-56
2021/01/09 04:07:58;;;;;;;17.57;12.97;;;3.50;99.90;;;;;;5069689;28;20686;-56
2021/01/09 04:10:24;;;;;;;18.77;13.20;;;3.40;99.90;;;;;;5069161;28;20586;-56
2021/01/09 04:12:49;;;;;;;19.27;14.43;;;3.20;99.90;;;;;;5067959;28;20190;-57
2021/01/09 04:15:15;;;;;;;18.73;14.10;;;3.40;99.90;;;;;;5059240;28;20550;-56
2021/01/09 04:17:41;;;;;;;19.50;13.53;;;3.20;99.90;;;;;;5066509;28;20255;-56
2021/01/09 04:20:08;;;;;;;17.10;13.10;;;3.50;99.90;;;;;;5070077;28;20435;-57
2021/01/09 04:22:33;;;;;;;18.90;13.50;;;3.40;99.90;;;;;;5057793;28;20228;-56
2021/01/09 04:24:59;;;;;;;17.73;13.07;;;3.40;99.90;;;;;;5068571;28;20220;-55
2021/01/09 04:27:25;;;;;;;19.30;14.47;;;3.70;99.90;;;;;;5070394;28;20189;-56
2021/01/09 04:29:50;;;;;;;20.00;13.67;;;3.50;99.90;;;;;;5066564;28;20192;-55
2021/01/09 04:32:16;;;;;;;19.00;13.83;;;3.30;99.90;;;;;;5070272;28;20284;-56
2021/01/09 04:34:42;;;;;;;17.80;13.97;;;3.40;99.90;;;;;;5056782;28;20216;-56
2021/01/09 04:37:08;;;;;;;19.42;13.00;;;3.40;99.90;;;;;;5063112;28;20189;-55
2021/01/09 04:39:34;;;;;;;19.27;14.02;;;3.50;99.90;;;;;;5053330;28;20742;-55
2021/01/09 04:41:59;;;;;;;19.00;14.43;;;3.20;99.90;;;;;;5061701;28;20189;-56
2021/01/09 04:44:25;;;;;;;16.93;13.30;;;3.50;99.90;;;;;;5064847;28;20299;-56
2021/01/09 04:46:56;;;;;;;20.47;14.67;;;3.50;99.90;;;;;;5061898;28;20200;-56
2021/01/09 04:49:26;;;;;;;20.23;14.38;;;3.70;99.90;;;;;;5068320;28;20211;-56
2021/01/09 04:51:53;;;;;;;20.65;14.75;;;3.50;99.90;;;;;;5055077;28;20177;-56
2021/01/09 04:54:21;;;;;;;22.95;14.85;;;3.30;99.90;;;;;;5058400;28;20242;-57
2021/01/09 04:56:49;;;;;;;18.42;13.90;;;3.60;99.90;;;;;;5058031;28;20205;-57
2021/01/09 04:59:15;;;;;;;18.15;14.85;;;3.40;99.90;;;;;;5060884;28;20213;-56
2021/01/09 05:01:42;;;;;;;20.63;14.80;;;3.50;99.90;;;;;;5068141;28;20681;-57
2021/01/09 05:04:18;;;;;;;20.98;14.30;;;3.30;99.90;;;;;;5060282;28;20181;-56
2021/01/09 05:06:47;;;;;;;22.52;15.55;;;3.30;99.90;;;;;;5067951;28;20590;-56
2021/01/09 05:09:14;;;;;;;20.83;14.40;;;3.50;99.90;;;;;;5066430;28;20205;-55
2021/01/09 05:11:42;;;;;;;19.35;13.30;;;3.60;99.90;;;;;;5067137;28;20189;-56
2021/01/09 05:14:09;;;;;;;20.90;15.95;;;3.20;99.90;;;;;;5066476;28;20242;-56
2021/01/09 05:16:36;;;;;;;21.05;14.30;;;3.30;99.90;;;;;;5062950;28;20647;-56
2021/01/09 05:19:04;;;;;;;21.73;14.57;;;3.50;99.90;;;;;;5064301;28;20221;-56
2021/01/09 05:21:32;;;;;;;18.85;14.80;;;3.20;99.90;;;;;;5061126;28;20177;-56
2021/01/09 05:24:00;;;;;;;20.25;14.25;;;3.10;99.90;;;;;;5063576;28;20708;-57
2021/01/09 05:26:26;;;;;;;20.33;14.80;;;3.20;99.90;;;;;;5065511;28;20181;-56
2021/01/09 05:29:00;;;;;;;22.08;16.00;;;3.30;99.90;;;;;;5068806;28;20287;-55
2021/01/09 05:31:27;;;;;;;25.50;14.73;;;3.50;99.90;;;;;;5063901;28;20196;-56
2021/01/09 05:33:53;;;;;;;19.60;14.98;;;3.40;99.90;;;;;;5058605;28;20199;-56
2021/01/09 05:36:20;;;;;;;21.83;14.32;;;3.80;99.90;;;;;;5064039;28;20554;-56
2021/01/09 05:38:48;;;;;;;22.90;15.23;;;3.60;99.90;;;;;;5063063;28;20213;-57
2021/01/09 05:41:19;;;;;;;18.35;14.52;;;3.40;99.90;;;;;;5059824;28;20251;-56
2021/01/09 05:44:06;;;;;;;26.05;15.30;;;3.40;99.90;;;;;;5064640;28;20597;-56
2021/01/09 05:46:37;;;;;;;23.23;14.52;;;3.00;99.90;;;;;;5063294;28;20286;-55
2021/01/09 05:49:04;;;;;;;22.98;16.73;;;3.40;99.90;;;;;;5058139;28;20205;-56
2021/01/09 05:51:35;;;;;;;20.65;15.15;;;3.30;99.90;;;;;;5068102;28;20348;-55
2021/01/09 05:54:01;;;;;;;23.60;16.10;;;3.10;99.90;;;;;;5075793;28;20235;-56
2021/01/09 05:56:26;;;;;;;24.08;16.33;;;3.30;99.90;;;;;;5061542;28;20185;-55
2021/01/09 05:58:55;;;;;;;23.70;15.97;;;3.10;99.90;;;;;;5066303;28;20216;-56
2021/01/09 06:01:25;;;;;;;21.20;16.33;;;3.30;99.90;;;;;;5057515;28;20185;-56
2021/01/09 06:04:19;;;;;;;24.23;16.63;;;3.60;99.90;;;;;;5062287;28;20228;-57
2021/01/09 06:06:56;;;;;;;21.70;15.82;;;3.50;99.90;;;;;;5068189;28;20735;-56
2021/01/09 06:09:32;;;;;;;24.83;17.20;;;3.30;99.90;;;;;;5066647;28;20564;-56
2021/01/09 06:12:11;;;;;;;23.38;17.50;;;3.20;99.90;;;;;;5067538;28;20180;-55
2021/01/09 06:14:42;;;;;;;25.67;17.63;;;3.30;99.90;;;;;;5062928;28;20200;-56
2021/01/09 06:17:10;;;;;;;22.38;17.15;;;3.30;99.90;;;;;;5063348;28;20181;-56
2021/01/09 06:19:36;;;;;;;24.60;17.23;;;3.40;99.90;;;;;;5053784;28;20223;-56
2021/01/09 06:22:02;;;;;;;27.23;18.65;;;3.20;99.90;;;;;;5059435;28;20667;-56
2021/01/09 06:24:28;;;;;;;23.52;17.23;;;3.30;99.90;;;;;;5062998;28;20213;-57
2021/01/09 06:26:55;;;;;;;28.40;18.63;;;3.40;99.90;;;;;;5059447;28;20211;-57
2021/01/09 06:29:22;;;;;;;22.70;17.33;;;3.70;99.90;;;;;;5054335;28;20216;-56
2021/01/09 06:31:59;;;;;;;25.50;17.73;;;3.50;99.90;;;;;;5059345;28;20283;-56
2021/01/09 06:34:27;;;;;;;23.67;16.33;;;3.30;99.90;;;;;;5054472;28;20661;-56
2021/01/09 06:36:56;;;;;;;25.45;17.55;;;3.30;99.90;;;;;;5064507;28;20253;-57
2021/01/09 06:39:24;;;;;;;24.35;17.40;;;3.20;99.90;;;;;;5055003;28;20682;-55
2021/01/09 06:41:53;;;;;;;27.17;18.77;;;3.30;99.90;;;;;;5054001;28;20192;-56
2021/01/09 06:44:22;;;;;;;25.88;17.85;;;3.30;99.90;;;;;;5056816;28;20177;-56
2021/01/09 06:46:49;;;;;;;28.20;18.88;;;3.20;99.90;;;;;;5064070;28;20216;-57
2021/01/09 06:49:17;;;;;;;25.60;16.83;;;3.40;99.90;;;;;;5065653;28;20745;-56
2021/01/09 06:51:44;;;;;;;25.13;16.92;;;3.20;99.90;;;;;;5063962;28;20453;-56
2021/01/09 06:54:16;;;;;;;25.25;17.73;;;3.30;99.90;;;;;;5055376;28;20676;-56
2021/01/09 06:56:46;;;;;;;24.02;17.17;;;3.30;99.90;;;;;;5062915;28;20282;-56
2021/01/09 06:59:32;;;;;;;23.23;16.08;;;3.30;99.90;;;;;;5055452;28;20728;-56
2021/01/09 07:02:22;;;;;;;23.13;16.10;;;3.20;99.90;;;;;;5048549;28;20251;-56
2021/01/09 07:04:59;;;;;;;23.25;16.20;;;3.30;99.90;;;;;;5059639;28;20188;-56
2021/01/09 07:07:54;;;;;;;21.98;15.52;;;3.30;99.90;;;;;;5073775;28;20188;-57
2021/01/09 07:10:31;;;;;;;24.55;16.05;;;3.30;99.90;;;;;;5055361;28;20342;-56
2021/01/09 07:13:07;;;;;;;23.10;16.15;;;3.50;99.90;;;;;;5066254;28;20692;-56
2021/01/09 07:15:36;;;;;;;24.25;16.75;;;3.30;99.90;;;;;;5072099;28;20192;-56
2021/01/09 07:18:07;;;;;;;22.90;15.93;;;3.20;99.90;;;;;;5063603;28;20218;-55
2021/01/09 07:20:44;;;;;;;25.63;16.15;;;3.10;99.90;;;;;;5062812;28;20230;-55
2021/01/09 07:23:14;;;;;;;25.05;16.73;;;3.40;99.90;;;;;;5062172;28;20276;-55
2021/01/09 07:25:52;;;;;;;22.73;16.88;;;3.20;99.90;;;;;;5060459;28;20188;-55
2021/01/09 07:28:27;;;;;;;23.92;15.68;;;3.10;99.90;;;;;;5066471;28;20287;-62
2021/01/09 07:31:07;;;;;;;25.98;15.63;;;2.90;99.90;;;;;;5063385;28;20279;-54
2021/01/09 07:33:34;;;;;;;28.08;18.92;;;3.20;99.90;;;;;;5057621;28;20183;-54
2021/01/09 07:36:01;;;;;;;26.50;17.80;;;3.10;99.90;;;;;;5065342;28;20211;-54
2021/01/09 07:38:28;;;;;;;28.10;17.23;;;3.30;99.90;;;;;;5066930;28;20785;-54
2021/01/09 07:41:00;;;;;;;26.70;17.48;;;3.30;99.90;;;;;;5066896;28;20549;-55
2021/01/09 07:43:45;;;;;;;25.33;16.45;;;3.30;99.90;;;;;;5053577;28;20192;-56
2021/01/09 07:46:30;;;;;;;25.95;18.10;;;3.10;99.90;;;;;;5057069;28;20199;-58
2021/01/09 07:48:57;;;;;;;28.20;18.48;;;3.00;99.90;;;;;;5052729;28;20324;-56
2021/01/09 07:51:49;;;;;;;29.70;19.40;;;3.30;99.90;;;;;;5069424;28;20661;-59
2021/01/09 07:54:34;;;;;;;25.85;17.48;;;3.00;99.90;;;;;;5065711;28;20181;-57
2021/01/09 07:56:59;;;;;;;26.60;17.77;;;3.30;99.90;;;;;;5069177;28;20189;-58
2021/01/09 07:59:25;;;;;;;26.13;17.00;;;3.20;99.90;;;;;;5060391;28;20355;-57
2021/01/09 08:01:51;;;;;;;22.37;16.97;;;3.30;99.90;;;;;;5056347;28;20737;-58
2021/01/09 08:04:16;;;;;;;27.93;18.20;;;3.10;99.90;;;;;;5054417;28;20178;-57
2021/01/09 08:06:42;;;;;;;25.90;17.67;;;2.90;99.90;;;;;;5059704;28;20189;-57
2021/01/09 08:09:09;;;;;;;20.57;15.10;;;3.30;99.90;;;;;;5068980;28;20232;-57
2021/01/09 08:11:45;;;;;;;21.27;15.63;;;3.20;99.90;;;;;;5058196;28;20455;-57
2021/01/09 08:14:12;;;;;;;21.83;16.58;;;3.30;99.90;;;;;;5062151;28;20200;-55
2021/01/09 08:16:38;;;;;;;22.65;16.13;;;3.20;99.90;;;;;;5063899;28;20581;-56
2021/01/09 08:19:20;;;;;;;24.23;16.97;;;3.20;99.90;;;;;;5062746;28;20209;-55
2021/01/09 08:21:47;;;;;;;23.80;17.33;;;3.10;99.90;;;;;;5066109;28;20469;-56
2021/01/09 08:24:26;;;;;;;25.73;17.10;;;2.80;99.90;;;;;;5060080;28;20796;-56
2021/01/09 08:26:57;;;;;;;28.60;18.63;;;2.50;99.90;;;;;;5056341;28;20644;-56
2021/01/09 08:29:24;;;;;;;29.80;19.17;;;2.60;99.90;;;;;;5065575;28;20269;-56
2021/01/09 08:31:51;;;;;;;31.02;20.95;;;2.80;99.90;;;;;;5069138;28;20650;-56
2021/01/09 08:34:18;;;;;;;24.95;17.63;;;2.70;99.90;;;;;;5061467;28;20196;-55
2021/01/09 08:36:44;;;;;;;30.05;19.40;;;2.90;99.90;;;;;;5068293;28;20194;-57
2021/01/09 08:39:10;;;;;;;28.00;18.60;;;3.20;99.90;;;;;;5054929;28;20223;-57
2021/01/09 08:41:40;;;;;;;29.40;19.02;;;3.00;99.90;;;;;;5050402;28;20945;-57
2021/01/09 08:44:11;;;;;;;29.30;18.92;;;3.20;99.90;;;;;;5053780;28;20192;-57
2021/01/09 08:46:37;;;;;;;29.63;18.88;;;3.40;99.90;;;;;;5072493;28;20189;-56
2021/01/09 08:49:04;;;;;;;26.23;19.08;;;2.80;99.90;;;;;;5059658;28;20224;-57
2021/01/09 08:51:32;;;;;;;28.90;20.02;;;3.20;99.90;;;;;;5066580;28;20191;-56
2021/01/09 08:54:02;;;;;;;29.60;18.92;;;3.50;99.90;;;;;;5059183;28;20197;-57
2021/01/09 08:56:30;;;;;;;26.58;17.45;;;3.50;99.90;;;;;;5068512;28;20189;-57
2021/01/09 08:59:10;;;;;;;27.30;19.15;;;3.10;99.90;;;;;;5058521;28;20300;-56
2021/01/09 09:01:43;;;;;;;32.40;19.02;;;3.20;99.90;;;;;;5058336;28;20219;-57
2021/01/09 09:04:10;;;;;;;27.17;17.83;;;3.00;99.90;;;;;;5071983;28;20229;-57
2021/01/09 09:06:38;;;;;;;24.45;16.55;;;3.20;99.90;;;;;;5056714;28;20182;-57
2021/01/09 09:09:04;;;;;;;25.83;17.45;;;3.30;99.90;;;;;;5056450;28;20213;-57
2021/01/09 09:11:30;;;;;;;30.35;19.50;;;2.90;99.90;;;;;;5053401;28;20186;-59
2021/01/09 09:14:09;;;;;;;27.83;17.63;;;3.50;99.90;;;;;;5058333;28;20243;-58
2021/01/09 09:16:36;;;;;;;25.42;15.98;;;3.30;99.90;;;;;;5055949;28;20189;-57
2021/01/09 09:19:17;;;;;;;27.83;17.63;;;3.50;99.90;;;;;;5063465;28;20760;-58
2021/01/09 09:21:45;;;;;;;28.08;17.42;;;3.60;99.90;;;;;;5057698;28;20974;-58
2021/01/09 09:24:12;;;;;;;22.65;16.52;;;3.50;99.90;;;;;;5063002;28;20693;-58
2021/01/09 09:26:38;;;;;;;25.88;17.63;;;3.30;99.90;;;;;;5049692;28;20185;-58
2021/01/09 09:29:04;;;;;;;26.52;18.65;;;3.20;99.90;;;;;;5060706;28;20200;-57
2021/01/09 09:31:32;;;;;;;26.98;18.45;;;3.20;99.90;;;;;;5067152;28;20600;-57
2021/01/09 09:34:04;;;;;;;24.13;16.80;;;2.90;99.90;;;;;;5058920;28;20185;-57
2021/01/09 09:36:33;;;;;;;24.50;17.25;;;3.50;99.90;;;;;;5063064;28;20615;-57
2021/01/09 09:39:09;;;;;;;23.10;16.15;;;3.60;99.90;;;;;;5065056;28;20263;-56
2021/01/09 09:41:52;;;;;;;25.40;17.13;;;3.80;99.90;;;;;;5058125;28;20208;-57
2021/01/09 09:44:18;;;;;;;23.73;14.55;;;3.40;99.90;;;;;;5067931;28;20259;-57
2021/01/09 09:46:44;;;;;;;26.17;16.85;;;3.70;99.90;;;;;;5061755;28;20189;-56
2021/01/09 09:49:11;;;;;;;21.85;16.20;;;3.50;99.90;;;;;;5063064;28;20206;-56
2021/01/09 09:51:36;;;;;;;25.80;17.10;;;3.80;99.90;;;;;;5062599;28;20194;-56
2021/01/09 09:54:03;;;;;;;30.93;17.70;;;3.70;99.90;;;;;;5060968;28;20189;-55
2021/01/09 09:56:41;;;;;;;26.05;16.80;;;3.60;99.90;;;;;;5066122;28;20189;-57
2021/01/09 09:59:09;;;;;;;27.38;15.90;;;3.70;99.90;;;;;;5077874;28;20209;-56
2021/01/09 10:01:35;;;;;;;19.77;13.82;;;3.30;99.90;;;;;;5054410;28;20257;-55
2021/01/09 10:04:03;;;;;;;22.90;15.57;;;3.40;99.90;;;;;;5067516;28;20549;-55
2021/01/09 10:06:40;;;;;;;20.30;14.93;;;3.40;99.90;;;;;;5062469;28;20537;-56
2021/01/09 10:09:12;;;;;;;20.58;14.68;;;3.60;99.90;;;;;;5060277;28;20630;-55
2021/01/09 10:11:39;;;;;;;20.33;13.88;;;3.20;99.90;;;;;;5062992;28;20271;-56
2021/01/09 10:14:05;;;;;;;22.00;14.40;;;3.30;99.90;;;;;;5062014;28;20209;-56
2021/01/09 10:16:32;;;;;;;19.33;14.50;;;3.70;99.90;;;;;;5063359;28;20219;-56
2021/01/09 10:18:58;;;;;;;23.48;14.88;;;3.40;99.90;;;;;;5064674;28;20209;-55
2021/01/09 10:21:31;;;;;;;16.37;12.50;;;3.40;99.90;;;;;;5058242;28;20238;-55
2021/01/09 10:23:58;;;;;;;19.58;14.23;;;3.50;99.90;;;;;;5058856;28;20185;-55
2021/01/09 10:26:31;;;;;;;20.23;15.05;;;3.20;99.90;;;;;;5049136;28;20192;-55
2021/01/09 10:28:58;;;;;;;17.77;13.95;;;3.30;99.90;;;;;;5057505;28;20288;-55
2021/01/09 10:31:31;;;;;;;17.83;13.00;;;3.30;99.90;;;;;;5053165;28;20284;-55
2021/01/09 10:33:57;;;;;;;20.15;14.52;;;3.20;99.90;;;;;;5060770;28;20181;-55
2021/01/09 10:36:26;;;;;;;21.90;15.10;;;3.50;99.90;;;;;;5051896;28;20299;-56
2021/01/09 10:38:53;;;;;;;23.50;14.77;;;3.30;99.90;;;;;;5060191;28;20524;-56
2021/01/09 10:41:18;;;;;;;23.15;15.27;;;3.40;99.90;;;;;;5066307;28;20280;-56
2021/01/09 10:43:44;;;;;;;18.80;14.20;;;3.30;99.90;;;;;;5052358;28;20201;-56
2021/01/09 10:46:10;;;;;;;21.23;14.30;;;3.60;99.90;;;;;;5056700;28;20208;-56
2021/01/09 10:48:36;;;;;;;21.37;14.67;;;3.90;99.90;;;;;;5054760;28;20524;-57
2021/01/09 10:51:01;;;;;;;16.70;11.50;;;3.90;99.90;;;;;;5065337;28;20246;-56
2021/01/09 10:53:27;;;;;;;18.87;12.50;;;4.00;99.90;;;;;;5053354;28;20209;-56
2021/01/09 10:55:56;;;;;;;18.10;12.67;;;3.60;99.90;;;;;;5060751;28;20190;-56
2021/01/09 10:58:22;;;;;;;19.00;13.35;;;3.70;99.90;;;;;;5065271;28;20225;-57
2021/01/09 11:00:48;;;;;;;20.63;14.23;;;3.70;99.90;;;;;;5057931;28;20192;-56
2021/01/09 11:03:14;;;;;;;17.70;12.90;;;3.80;99.90;;;;;;5064976;28;20491;-57
2021/01/09 11:05:41;;;;;;;19.30;13.60;;;3.70;99.90;;;;;;5052806;28;20849;-56
2021/01/09 11:08:06;;;;;;;17.02;11.48;;;4.30;99.90;;;;;;5066768;28;20210;-57
2021/01/09 11:10:32;;;;;;;17.23;12.93;;;4.00;99.90;;;;;;5058012;28;20196;-55
2021/01/09 11:12:58;;;;;;;14.77;12.33;;;4.00;99.90;;;;;;5062258;28;20192;-57
2021/01/09 11:15:24;;;;;;;17.07;12.10;;;4.30;99.90;;;;;;5057265;28;20252;-56
2021/01/09 11:17:50;;;;;;;17.87;13.40;;;4.00;99.90;;;;;;5054451;28;20471;-57
2021/01/09 11:20:16;;;;;;;19.10;13.15;;;4.00;99.90;;;;;;5056203;28;20638;-55
2021/01/09 11:22:41;;;;;;;20.57;14.33;;;3.80;99.90;;;;;;5061029;28;20181;-56
2021/01/09 11:25:07;;;;;;;18.37;12.90;;;3.60;99.90;;;;;;5059790;28;20710;-56
2021/01/09 11:27:33;;;;;;;18.80;12.90;;;3.80;99.90;;;;;;5069610;28;20571;-56
2021/01/09 11:29:58;;;;;;;16.93;11.77;;;3.90;99.90;;;;;;5061636;28;20471;-56
2021/01/09 11:32:24;;;;;;;17.67;12.13;;;3.90;99.90;;;;;;5062654;28;20260;-56
2021/01/09 11:34:50;;;;;;;16.67;11.80;;;3.80;99.90;;;;;;5059251;28;20654;-56
2021/01/09 11:37:16;;;;;;;15.67;11.40;;;4.20;99.90;;;;;;5057809;28;20474;-57
2021/01/09 11:39:42;;;;;;;16.30;12.40;;;4.00;99.90;;;;;;5055827;28;20717;-59
2021/01/09 11:42:09;;;;;;;14.23;10.30;;;4.50;99.90;;;;;;5064847;28;20439;-57
2021/01/09 11:44:35;;;;;;;15.18;9.48;;;4.30;99.90;;;;;;5056237;28;20487;-57
2021/01/09 11:47:00;;;;;;;14.87;10.23;;;4.10;99.90;;;;;;5062070;28;20617;-58
2021/01/09 11:49:27;;;;;;;10.73;8.30;;;4.50;99.30;;;;;;5064757;28;20579;-57
2021/01/09 11:51:54;;;;;;;11.52;8.80;;;4.40;97.30;;;;;;5049973;28;20191;-56
2021/01/09 11:54:20;;;;;;;11.20;8.40;;;4.60;96.40;;;;;;5059158;28;20186;-56
2021/01/09 11:56:54;;;;;;;12.60;9.10;;;4.80;96.60;;;;;;5050325;28;20213;-56
2021/01/09 11:59:19;;;;;;;12.52;9.52;;;4.40;97.00;;;;;;5060446;28;20263;-56
2021/01/09 12:01:45;;;;;;;11.93;9.27;;;4.80;97.50;;;;;;5062894;28;20185;-57
2021/01/09 12:04:10;;;;;;;11.60;8.97;;;4.70;97.50;;;;;;5054676;28;20281;-57
2021/01/09 12:06:36;;;;;;;12.57;10.40;;;5.00;97.50;;;;;;5051202;28;20186;-59
2021/01/09 12:09:02;;;;;;;9.97;8.80;;;4.90;97.00;;;;;;5068306;28;20809;-57
2021/01/09 12:11:28;;;;;;;11.80;8.02;;;4.90;97.50;;;;;;5059494;28;20219;-57
2021/01/09 12:14:00;;;;;;;10.17;7.23;;;5.10;95.80;;;;;;5062526;28;20271;-57
2021/01/09 12:16:29;;;;;;;9.35;7.30;;;4.50;94.80;;;;;;5059041;28;20208;-57
2021/01/09 12:18:55;;;;;;;9.57;7.63;;;4.90;95.10;;;;;;5062457;28;20302;-55
2021/01/09 12:21:21;;;;;;;11.98;8.63;;;4.70;95.20;;;;;;5064439;28;20215;-57
2021/01/09 12:23:46;;;;;;;11.60;8.77;;;4.80;95.90;;;;;;5067585;28;20203;-58
2021/01/09 12:26:17;;;;;;;12.97;9.00;;;4.70;95.90;;;;;;5053888;28;20432;-57
2021/01/09 12:28:42;;;;;;;10.25;7.13;;;4.40;95.60;;;;;;5069481;28;20205;-56
2021/01/09 12:31:08;;;;;;;9.20;7.67;;;4.40;95.70;;;;;;5058792;28;20191;-56
2021/01/09 12:33:34;;;;;;;9.87;7.83;;;4.40;95.90;;;;;;5057866;28;20793;-56
2021/01/09 12:35:59;;;;;;;7.93;6.80;;;4.50;95.70;;;;;;5052445;28;20226;-56
2021/01/09 12:38:25;;;;;;;8.87;7.10;;;4.70;95.50;;;;;;5056259;28;20274;-56
2021/01/09 12:40:53;;;;;;;8.20;6.33;;;4.30;95.90;;;;;;5064543;28;20189;-56
2021/01/09 12:43:19;;;;;;;9.73;7.65;;;4.30;95.60;;;;;;5061157;28;20217;-56
2021/01/09 12:45:45;;;;;;;9.33;7.17;;;4.40;95.70;;;;;;5053293;28;20214;-56